createdAt,value
2022-08-19T00:01:28.866Z,15.13
2022-08-19T00:03:52.277Z,14.85
2022-08-19T00:06:19.811Z,15.57
2022-08-19T00:08:47.485Z,14.50
2022-08-19T00:11:18.597Z,12.80
2022-08-19T00:13:43.371Z,13.43
2022-08-19T00:16:11.881Z,14.53
2022-08-19T00:18:39.455Z,14.07
2022-08-19T00:21:07.020Z,12.67
2022-08-19T00:23:34.643Z,15.57
2022-08-19T00:26:02.217Z,18.13
2022-08-19T00:28:29.781Z,14.13
2022-08-19T00:30:57.365Z,14.27
2022-08-19T00:33:24.920Z,13.93
2022-08-19T00:35:56.154Z,13.57
2022-08-19T00:38:34.980Z,10.97
2022-08-19T00:40:47.632Z,15.60
2022-08-19T00:43:15.266Z,12.37
2022-08-19T00:45:42.843Z,16.50
2022-08-19T00:48:14.905Z,12.33
2022-08-19T00:50:38.727Z,13.20
2022-08-19T00:53:06.320Z,13.30
2022-08-19T00:55:33.885Z,12.77
2022-08-19T00:58:01.457Z,15.70
2022-08-19T01:00:29.819Z,13.60
2022-08-19T01:02:57.372Z,15.60
2022-08-19T01:05:24.926Z,14.33
2022-08-19T01:07:52.540Z,15.48
2022-08-19T01:10:20.093Z,13.77
2022-08-19T01:12:47.713Z,13.60
2022-08-19T01:15:15.568Z,12.50
2022-08-19T01:17:43.123Z,12.87
2022-08-19T01:20:16.418Z,15.07
2022-08-19T01:22:47.334Z,12.33
2022-08-19T01:25:15.293Z,14.60
2022-08-19T01:27:43.595Z,15.53
2022-08-19T01:30:10.001Z,12.87
2022-08-19T01:32:37.556Z,13.13
2022-08-19T01:35:05.164Z,12.87
2022-08-19T01:37:32.725Z,17.30
2022-08-19T01:40:00.345Z,13.87
2022-08-19T01:42:29.963Z,13.57
2022-08-19T01:44:55.456Z,15.02
2022-08-19T01:47:23.788Z,13.33
2022-08-19T01:49:51.352Z,15.07
2022-08-19T01:52:18.947Z,13.80
2022-08-19T01:54:47.279Z,15.10
2022-08-19T01:57:14.849Z,13.97
2022-08-19T01:59:42.444Z,13.27
2022-08-19T02:02:10.763Z,13.73
2022-08-19T02:04:40.802Z,14.67
2022-08-19T02:07:08.375Z,13.53
2022-08-19T02:09:35.966Z,14.33
2022-08-19T02:12:04.308Z,15.13
2022-08-19T02:14:32.876Z,13.47
2022-08-19T02:17:00.431Z,13.23
2022-08-19T02:19:27.995Z,13.27
2022-08-19T02:21:55.867Z,17.57
2022-08-19T02:24:23.439Z,12.57
2022-08-19T02:26:51.003Z,14.70
2022-08-19T02:29:18.616Z,14.53
2022-08-19T02:31:46.194Z,15.98
2022-08-19T02:34:13.747Z,14.87
2022-08-19T02:36:42.488Z,14.33
2022-08-19T02:39:08.896Z,14.57
2022-08-19T02:41:36.480Z,14.47
2022-08-19T02:44:29.202Z,15.63
2022-08-19T02:46:31.728Z,14.73
2022-08-19T02:48:59.252Z,15.13
2022-08-19T02:51:29.868Z,18.58
2022-08-19T02:53:57.443Z,17.45
2022-08-19T02:56:25.007Z,14.77
2022-08-19T02:58:52.604Z,17.90
2022-08-19T03:01:23.794Z,18.65
2022-08-19T03:03:51.276Z,16.97
2022-08-19T03:06:18.851Z,17.37
2022-08-19T03:08:47.184Z,17.90
2022-08-19T03:11:17.652Z,15.07
2022-08-19T03:13:45.255Z,14.57
2022-08-19T03:16:12.820Z,17.03
2022-08-19T03:18:40.443Z,17.70
2022-08-19T03:21:07.978Z,15.47
2022-08-19T03:23:35.552Z,14.93
2022-08-19T03:26:16.598Z,17.57
2022-08-19T03:28:34.314Z,17.13
2022-08-19T03:31:05.276Z,15.80
2022-08-19T03:33:32.840Z,17.00
2022-08-19T03:36:11.875Z,17.77
2022-08-19T03:38:39.429Z,17.37
2022-08-19T03:41:06.984Z,17.83
2022-08-19T03:43:34.589Z,17.50
2022-08-19T03:46:02.942Z,15.67
2022-08-19T03:48:30.464Z,16.40
2022-08-19T03:50:58.048Z,15.97
2022-08-19T03:53:25.612Z,15.50
2022-08-19T03:55:53.180Z,16.63
2022-08-19T03:58:20.767Z,19.40
2022-08-19T04:00:48.363Z,21.47
2022-08-19T04:03:16.713Z,16.83
2022-08-19T04:05:45.056Z,18.70
2022-08-19T04:08:14.004Z,16.87
2022-08-19T04:10:40.963Z,16.60
2022-08-19T04:13:08.813Z,16.07
2022-08-19T04:15:36.387Z,15.37
2022-08-19T04:18:03.970Z,16.60
2022-08-19T04:20:31.584Z,18.17
2022-08-19T04:22:59.168Z,16.97
2022-08-19T04:25:26.732Z,16.27
2022-08-19T04:27:54.336Z,18.83
2022-08-19T04:30:21.897Z,19.33
2022-08-19T04:32:49.470Z,17.23
2022-08-19T04:35:20.131Z,16.10
2022-08-19T04:37:44.649Z,16.47
2022-08-19T04:40:30.586Z,17.43
2022-08-19T04:42:58.157Z,18.87
2022-08-19T04:45:26.499Z,18.00
2022-08-19T04:47:58.819Z,21.80
2022-08-19T04:50:22.415Z,18.50
2022-08-19T04:52:49.981Z,18.20
2022-08-19T04:55:18.490Z,19.43
2022-08-19T04:57:46.064Z,17.13
2022-08-19T05:00:13.657Z,20.37
2022-08-19T05:02:41.271Z,18.20
2022-08-19T05:05:08.835Z,19.07
2022-08-19T05:07:36.409Z,20.02
2022-08-19T05:10:04.810Z,19.27
2022-08-19T05:12:32.384Z,17.50
2022-08-19T05:14:59.948Z,16.67
2022-08-19T05:17:30.146Z,15.83
2022-08-19T05:20:14.080Z,17.07
2022-08-19T05:22:41.684Z,14.57
2022-08-19T05:25:13.053Z,17.83
2022-08-19T05:27:36.803Z,15.50
2022-08-19T05:30:04.692Z,18.27
2022-08-19T05:32:32.246Z,18.57
2022-08-19T05:34:59.812Z,20.80
2022-08-19T05:37:27.424Z,17.37
2022-08-19T05:39:55.009Z,19.45
2022-08-19T05:42:22.546Z,18.57
2022-08-19T05:44:50.482Z,20.73
2022-08-19T05:47:18.056Z,19.73
2022-08-19T05:49:46.378Z,21.33
2022-08-19T05:52:13.973Z,19.77
2022-08-19T05:54:41.536Z,18.17
2022-08-19T05:57:09.120Z,21.77
2022-08-19T05:59:39.249Z,20.50
2022-08-19T06:02:06.268Z,20.50
2022-08-19T06:04:33.822Z,19.50
2022-08-19T06:07:01.443Z,24.83
2022-08-19T06:09:29.088Z,21.80
2022-08-19T06:11:56.633Z,20.00
2022-08-19T06:14:27.838Z,20.70
2022-08-19T06:16:52.566Z,18.57
2022-08-19T06:19:20.889Z,21.73
2022-08-19T06:21:48.492Z,23.53
2022-08-19T06:24:16.067Z,19.13
2022-08-19T06:29:11.983Z,20.43
2022-08-19T06:31:39.568Z,20.83
2022-08-19T06:34:07.888Z,22.83
2022-08-19T06:36:35.778Z,24.20
2022-08-19T06:39:03.354Z,20.90
2022-08-19T06:41:30.908Z,21.20
2022-08-19T06:43:59.113Z,25.33
2022-08-19T06:46:27.528Z,22.87
2022-08-19T06:48:55.840Z,22.13
2022-08-19T06:51:23.466Z,22.73
2022-08-19T06:56:19.319Z,21.83
2022-08-19T06:58:46.938Z,22.53
2022-08-19T07:01:15.271Z,25.47
2022-08-19T07:03:42.838Z,24.93
2022-08-19T07:06:21.296Z,25.43
2022-08-19T07:11:09.267Z,26.43
2022-08-19T07:13:38.845Z,30.17
2022-08-19T07:16:10.135Z,29.27
2022-08-19T07:18:37.696Z,31.30
2022-08-19T07:21:14.329Z,27.87
2022-08-19T07:23:41.922Z,29.13
2022-08-19T07:26:09.585Z,28.90
2022-08-19T07:28:37.504Z,29.60
2022-08-19T07:31:05.087Z,31.93
2022-08-19T07:33:33.409Z,31.23
2022-08-19T07:36:01.013Z,29.60
2022-08-19T07:38:29.365Z,29.07
2022-08-19T07:40:56.943Z,29.17
2022-08-19T07:43:24.880Z,29.50
2022-08-19T07:45:55.323Z,28.63
2022-08-19T07:48:22.845Z,30.90
2022-08-19T07:50:50.468Z,29.23
2022-08-19T07:53:18.013Z,28.20
2022-08-19T07:55:45.589Z,31.10
2022-08-19T07:58:13.974Z,27.62
2022-08-19T08:00:42.345Z,28.40
2022-08-19T08:03:09.941Z,25.33
2022-08-19T08:05:56.872Z,28.93
2022-08-19T08:08:44.523Z,25.63
2022-08-19T08:11:11.074Z,23.70
2022-08-19T08:13:39.105Z,24.33
2022-08-19T08:16:06.286Z,22.10
2022-08-19T08:18:33.870Z,24.20
2022-08-19T08:21:01.434Z,23.58
2022-08-19T08:23:29.815Z,24.43
2022-08-19T08:25:57.571Z,22.77
2022-08-19T08:28:25.690Z,27.70
2022-08-19T08:30:53.256Z,24.80
2022-08-19T08:33:32.735Z,25.63
2022-08-19T08:35:48.423Z,23.40
2022-08-19T08:38:15.980Z,19.97
2022-08-19T08:40:43.564Z,24.02
2022-08-19T08:43:23.893Z,22.63
2022-08-19T08:46:06.876Z,23.57
2022-08-19T08:48:37.483Z,23.37
2022-08-19T08:51:10.916Z,21.97
2022-08-19T08:53:41.425Z,22.98
2022-08-19T08:56:06.093Z,19.83
2022-08-19T08:58:53.859Z,25.02
2022-08-19T09:01:16.854Z,22.97
2022-08-19T09:03:44.395Z,24.00
2022-08-19T09:06:15.681Z,22.53
2022-08-19T09:08:46.771Z,23.80
2022-08-19T09:11:42.984Z,22.70
2022-08-19T09:14:34.892Z,24.37
2022-08-19T09:16:41.059Z,23.67
2022-08-19T09:19:09.414Z,21.47
2022-08-19T09:21:36.991Z,20.87
2022-08-19T09:24:05.380Z,22.00
2022-08-19T09:26:47.585Z,20.23
2022-08-19T09:29:01.301Z,18.80
2022-08-19T09:31:28.899Z,23.23
2022-08-19T09:33:56.472Z,16.93
2022-08-19T09:36:32.924Z,20.23
2022-08-19T09:38:51.655Z,17.90
2022-08-19T09:41:19.973Z,21.23
2022-08-19T09:43:47.774Z,20.10
2022-08-19T09:46:18.261Z,18.60
2022-08-19T09:48:43.600Z,18.30
2022-08-19T09:51:11.958Z,21.47
2022-08-19T09:53:38.750Z,19.77
2022-08-19T09:56:07.085Z,19.27
2022-08-19T09:58:34.653Z,21.30
2022-08-19T10:01:02.284Z,17.87
2022-08-19T10:03:30.571Z,17.50
2022-08-19T10:05:58.159Z,18.70
2022-08-19T10:08:26.484Z,19.30
2022-08-19T10:10:53.276Z,20.20
2022-08-19T10:13:20.831Z,23.40
2022-08-19T10:15:49.509Z,20.03
2022-08-19T10:18:16.031Z,20.10
2022-08-19T10:20:43.619Z,16.33
2022-08-19T10:23:11.489Z,17.17
2022-08-19T10:25:39.053Z,18.27
2022-08-19T10:28:06.607Z,18.50
2022-08-19T10:30:34.231Z,16.00
2022-08-19T10:33:04.389Z,19.03
2022-08-19T10:35:29.389Z,15.53
2022-08-19T10:38:02.023Z,21.13
2022-08-19T10:40:24.628Z,19.30
2022-08-19T10:42:52.146Z,17.23
2022-08-19T10:45:19.832Z,18.87
2022-08-19T10:47:47.356Z,18.00
2022-08-19T10:50:33.229Z,20.60
2022-08-19T10:53:01.562Z,18.70
2022-08-19T10:55:46.909Z,20.07
2022-08-19T10:58:14.482Z,20.87
2022-08-19T11:00:42.048Z,19.63
2022-08-19T11:03:09.781Z,20.37
2022-08-19T11:05:40.447Z,17.33
2022-08-19T11:08:22.209Z,20.40
2022-08-19T11:10:33.204Z,14.77
2022-08-19T11:13:00.815Z,12.50
2022-08-19T11:15:29.158Z,16.77
2022-08-19T11:17:56.744Z,16.80
2022-08-19T11:20:24.317Z,16.07
2022-08-19T11:22:52.639Z,13.53
2022-08-19T11:25:20.273Z,11.30
2022-08-19T11:27:47.888Z,11.37
2022-08-19T11:30:15.365Z,7.83
2022-08-19T11:32:48.543Z,8.83
2022-08-19T11:35:10.904Z,11.63
2022-08-19T11:37:39.236Z,9.93
2022-08-19T11:40:07.011Z,12.13
2022-08-19T11:42:53.023Z,10.67
2022-08-19T11:45:21.602Z,11.77
2022-08-19T11:47:49.159Z,11.02
2022-08-19T11:50:16.710Z,9.73
2022-08-19T11:52:44.327Z,8.27
2022-08-19T11:55:11.870Z,10.03
2022-08-19T11:57:40.193Z,11.07
2022-08-19T12:00:07.846Z,9.37
2022-08-19T12:02:35.420Z,11.10
2022-08-19T12:05:02.983Z,6.60
2022-08-19T12:07:30.596Z,9.50
2022-08-19T12:09:58.162Z,7.10
2022-08-19T12:12:26.525Z,9.30
2022-08-19T12:14:54.137Z,8.67
2022-08-19T12:17:21.692Z,8.20
2022-08-19T12:19:49.248Z,9.10
2022-08-19T12:22:16.931Z,12.70
2022-08-19T12:24:44.476Z,13.27
2022-08-19T12:27:12.916Z,11.93
2022-08-19T12:29:39.639Z,13.83
2022-08-19T12:32:07.193Z,10.30
2022-08-19T12:34:34.771Z,10.15
2022-08-19T12:37:03.142Z,10.37
2022-08-19T12:39:30.736Z,9.53
2022-08-19T12:41:59.024Z,8.00
2022-08-19T12:44:29.486Z,6.47
2022-08-19T12:46:55.086Z,7.07
2022-08-19T12:49:47.099Z,6.77
2022-08-19T12:51:50.288Z,9.83
2022-08-19T12:54:17.861Z,6.32
2022-08-19T12:56:45.420Z,6.43
2022-08-19T12:59:12.989Z,5.40
2022-08-19T13:01:40.556Z,5.17
2022-08-19T13:04:08.113Z,4.90
2022-08-19T13:06:35.711Z,5.13
2022-08-19T13:09:03.361Z,5.43
2022-08-19T13:11:30.966Z,3.57
2022-08-19T13:13:58.521Z,3.20
2022-08-19T13:16:26.092Z,2.90
2022-08-19T13:18:53.635Z,2.30
2022-08-19T13:21:23.192Z,2.87
2022-08-19T13:23:49.556Z,2.63
2022-08-19T13:26:17.113Z,2.27
2022-08-19T13:29:02.793Z,3.23
2022-08-19T13:31:48.463Z,2.20
2022-08-19T13:34:16.027Z,2.20
2022-08-19T13:36:43.591Z,2.78
2022-08-19T13:39:11.155Z,2.57
2022-08-19T13:41:38.740Z,1.80
2022-08-19T13:44:07.056Z,1.70
2022-08-19T13:46:34.619Z,1.30
2022-08-19T13:49:02.196Z,1.70
2022-08-19T13:51:29.778Z,1.20
2022-08-19T13:53:57.315Z,0.70
2022-08-19T13:56:26.511Z,2.70
2022-08-19T13:58:52.468Z,0.67
2022-08-19T14:01:24.565Z,2.10
2022-08-19T14:03:51.155Z,0.70
2022-08-19T14:06:18.719Z,1.87
2022-08-19T14:08:46.548Z,2.25
2022-08-19T14:11:13.868Z,0.80
2022-08-19T14:13:42.200Z,2.03
2022-08-19T14:16:09.754Z,0.70
2022-08-19T14:18:37.394Z,0.80
2022-08-19T14:21:05.732Z,0.70
2022-08-19T14:23:33.304Z,1.17
2022-08-19T14:26:07.760Z,2.20
2022-08-19T14:28:35.325Z,1.70
2022-08-19T14:31:02.919Z,0.50
2022-08-19T14:33:30.561Z,0.97
2022-08-19T14:35:59.621Z,12.40
2022-08-19T14:38:31.780Z,0.33
2022-08-19T14:40:53.283Z,1.33
2022-08-19T14:43:20.828Z,0.60
2022-08-19T14:45:48.383Z,0.97
2022-08-19T14:48:19.271Z,1.30
2022-08-19T14:50:44.306Z,0.40
2022-08-19T14:53:12.081Z,0.80
2022-08-19T14:55:39.791Z,0.47
2022-08-19T14:58:08.836Z,0.93
2022-08-19T15:00:34.895Z,0.80
2022-08-19T15:03:02.488Z,1.83
2022-08-19T15:05:30.082Z,1.23
2022-08-19T15:07:57.613Z,0.60
2022-08-19T15:10:25.201Z,1.20
2022-08-19T15:12:52.879Z,0.53
2022-08-19T15:15:20.352Z,0.90
2022-08-19T15:17:47.969Z,0.40
2022-08-19T15:20:15.526Z,0.40
2022-08-19T15:22:43.089Z,1.40
2022-08-19T15:25:11.535Z,0.40
2022-08-19T15:27:39.132Z,0.97
2022-08-19T15:30:06.810Z,0.60
2022-08-19T15:32:34.696Z,1.60
2022-08-19T15:35:02.269Z,0.57
2022-08-19T15:37:30.648Z,0.50
2022-08-19T15:39:58.301Z,0.50
2022-08-19T15:42:30.289Z,2.00
2022-08-19T15:44:54.114Z,1.60
2022-08-19T15:47:21.706Z,0.50
2022-08-19T15:49:49.257Z,2.60
2022-08-19T15:52:16.829Z,0.97
2022-08-19T15:54:44.451Z,0.85
2022-08-19T15:57:27.275Z,0.60
2022-08-19T16:00:13.251Z,1.50
2022-08-19T16:02:59.317Z,0.83
2022-08-19T16:05:44.952Z,0.70
2022-08-19T16:08:12.512Z,0.50
2022-08-19T16:10:40.108Z,0.60
2022-08-19T16:13:08.464Z,2.53
2022-08-19T16:15:36.032Z,0.30
2022-08-19T16:18:03.594Z,0.70
2022-08-19T16:20:31.186Z,0.50
2022-08-19T16:22:58.785Z,0.50
2022-08-19T16:25:26.356Z,0.63
2022-08-19T16:28:06.670Z,1.80
2022-08-19T16:30:22.301Z,0.83
2022-08-19T16:32:49.851Z,1.30
2022-08-19T16:35:17.464Z,0.68
2022-08-19T16:37:44.998Z,1.03
2022-08-19T16:40:12.741Z,0.90
2022-08-19T16:42:40.283Z,0.70
2022-08-19T16:45:07.925Z,2.13
2022-08-19T16:47:35.475Z,1.10
2022-08-19T16:50:03.064Z,0.50
2022-08-19T16:52:30.627Z,0.43
2022-08-19T16:54:58.182Z,1.23
2022-08-19T16:57:26.077Z,0.73
2022-08-19T16:59:53.652Z,0.83
2022-08-19T17:02:22.061Z,1.85
2022-08-19T17:04:58.054Z,0.70
2022-08-19T17:07:17.157Z,0.43
2022-08-19T17:09:44.707Z,1.50
2022-08-19T17:12:12.324Z,0.70
2022-08-19T17:14:45.165Z,0.70
2022-08-19T17:17:08.154Z,0.60
2022-08-19T17:19:35.738Z,1.33
2022-08-19T17:22:03.309Z,1.20
2022-08-19T17:24:30.877Z,1.60
2022-08-19T17:26:58.490Z,0.60
2022-08-19T17:29:26.045Z,0.60
2022-08-19T17:31:53.617Z,0.60
2022-08-19T17:34:21.211Z,0.80
2022-08-19T17:36:48.785Z,0.77
2022-08-19T17:39:16.360Z,0.60
2022-08-19T17:41:43.953Z,0.70
2022-08-19T17:44:11.549Z,0.73
2022-08-19T17:46:39.111Z,1.20
2022-08-19T17:49:06.760Z,0.67
2022-08-19T17:51:34.309Z,0.60
2022-08-19T17:54:01.863Z,1.43
2022-08-19T17:56:29.480Z,1.03
2022-08-19T17:58:59.628Z,0.60
2022-08-19T18:01:24.676Z,1.58
2022-08-19T18:03:53.154Z,0.97
2022-08-19T18:06:20.727Z,1.90
2022-08-19T18:08:48.282Z,1.33
2022-08-19T18:11:15.886Z,0.90
2022-08-19T18:13:44.208Z,1.23
2022-08-19T18:16:11.763Z,0.70
2022-08-19T18:18:39.368Z,1.43
2022-08-19T18:21:06.940Z,1.33
2022-08-19T18:23:44.055Z,2.10
2022-08-19T18:26:02.847Z,1.47
2022-08-19T18:28:30.440Z,1.17
2022-08-19T18:30:58.766Z,1.93
2022-08-19T18:33:26.356Z,1.10
2022-08-19T18:35:53.920Z,2.10
2022-08-19T18:38:39.443Z,0.70
2022-08-19T18:41:25.646Z,1.30
2022-08-19T18:44:11.338Z,2.70
2022-08-19T18:46:57.501Z,2.27
2022-08-19T18:49:24.525Z,1.98
2022-08-19T18:51:52.088Z,1.20
2022-08-19T18:54:19.663Z,1.37
2022-08-19T18:56:48.027Z,1.60
2022-08-19T18:59:14.866Z,1.20
2022-08-19T19:01:42.469Z,1.53
2022-08-19T19:04:12.524Z,1.87
2022-08-19T19:06:40.100Z,1.27
2022-08-19T19:09:07.653Z,1.83
2022-08-19T19:11:35.247Z,3.00
2022-08-19T19:14:02.810Z,1.10
2022-08-19T19:16:31.172Z,2.03
2022-08-19T19:18:58.787Z,2.60
2022-08-19T19:21:26.360Z,1.33
2022-08-19T19:23:53.914Z,2.63
2022-08-19T19:26:21.498Z,1.87
2022-08-19T19:28:49.053Z,1.77
2022-08-19T19:31:16.604Z,1.20
2022-08-19T19:33:44.198Z,1.53
2022-08-19T19:36:11.753Z,2.30
2022-08-19T19:38:39.317Z,2.42
2022-08-19T19:41:06.924Z,2.90
2022-08-19T19:43:34.885Z,1.80
2022-08-19T19:46:02.050Z,3.23
2022-08-19T19:48:29.706Z,1.93
2022-08-19T19:50:58.005Z,1.40
2022-08-19T19:53:25.883Z,3.23
2022-08-19T19:55:53.173Z,1.93
2022-08-19T19:58:22.744Z,2.27
2022-08-19T20:00:48.344Z,1.37
2022-08-19T20:03:15.876Z,2.20
2022-08-19T20:05:43.499Z,1.77
2022-08-19T20:08:29.359Z,2.10
2022-08-19T20:10:56.913Z,1.62
2022-08-19T20:13:24.467Z,2.40
2022-08-19T20:15:52.051Z,1.93
2022-08-19T20:18:19.595Z,4.43
2022-08-19T20:20:47.160Z,1.43
2022-08-19T20:23:14.833Z,1.70
2022-08-19T20:25:42.386Z,2.07
2022-08-19T20:28:10.679Z,1.73
2022-08-19T20:30:40.458Z,3.20
2022-08-19T20:33:08.543Z,1.95
2022-08-19T20:35:36.108Z,3.57
2022-08-19T20:38:03.915Z,2.03
2022-08-19T20:40:31.265Z,2.17
2022-08-19T20:42:58.830Z,2.20
2022-08-19T20:45:32.928Z,1.87
2022-08-19T20:47:54.152Z,2.63
2022-08-19T20:50:21.572Z,4.17
2022-08-19T20:52:50.186Z,6.03
2022-08-19T20:55:17.516Z,1.90
2022-08-19T20:57:45.106Z,1.83
2022-08-19T21:00:12.720Z,1.63
2022-08-19T21:02:40.294Z,2.70
2022-08-19T21:05:07.877Z,1.10
2022-08-19T21:07:39.540Z,0.90
2022-08-19T21:10:03.044Z,1.10
2022-08-19T21:12:30.594Z,2.13
2022-08-19T21:14:58.206Z,1.10
2022-08-19T21:17:25.761Z,2.37
2022-08-19T21:19:53.344Z,0.57
2022-08-19T21:22:21.046Z,0.60
2022-08-19T21:24:48.617Z,2.40
2022-08-19T21:27:16.233Z,0.70
2022-08-19T21:29:43.828Z,1.10
2022-08-19T21:32:14.563Z,1.03
2022-08-19T21:34:40.263Z,2.00
2022-08-19T21:37:11.636Z,1.62
2022-08-19T21:39:36.215Z,0.40
2022-08-19T21:42:03.758Z,0.37
2022-08-19T21:44:32.514Z,0.47
2022-08-19T21:47:00.099Z,0.40
2022-08-19T21:49:27.672Z,0.60
2022-08-19T21:51:55.512Z,0.40
2022-08-19T21:54:23.078Z,1.30
2022-08-19T21:56:50.641Z,0.40
2022-08-19T21:59:18.254Z,0.30
2022-08-19T22:01:49.631Z,0.30
2022-08-19T22:04:13.403Z,0.47
2022-08-19T22:06:41.016Z,0.40
2022-08-19T22:09:09.348Z,1.43
2022-08-19T22:11:36.904Z,0.23
2022-08-19T22:14:05.629Z,0.40
2022-08-19T22:16:33.971Z,0.33
2022-08-19T22:19:01.516Z,1.20
2022-08-19T22:21:39.891Z,1.37
2022-08-19T22:23:56.704Z,0.67
2022-08-19T22:26:25.085Z,0.60
2022-08-19T22:28:52.688Z,1.57
2022-08-19T22:31:20.243Z,1.15
2022-08-19T22:33:47.807Z,0.43
2022-08-19T22:36:15.404Z,1.30
2022-08-19T22:38:42.975Z,2.43
2022-08-19T22:41:11.307Z,0.50
2022-08-19T22:43:39.197Z,1.73
2022-08-19T22:46:17.362Z,0.93
2022-08-19T22:48:34.324Z,0.68
2022-08-19T22:51:19.996Z,0.80
2022-08-19T22:53:47.553Z,0.83
2022-08-19T22:56:15.630Z,0.88
2022-08-19T22:58:42.721Z,1.63
2022-08-19T23:01:11.098Z,1.55
2022-08-19T23:03:38.636Z,0.80
2022-08-19T23:06:06.249Z,0.63
2022-08-19T23:08:33.816Z,0.90
2022-08-19T23:11:01.380Z,1.33
2022-08-19T23:13:29.860Z,0.50
2022-08-19T23:15:57.416Z,2.23
2022-08-19T23:18:24.979Z,0.50
2022-08-19T23:20:52.878Z,0.40
2022-08-19T23:23:20.483Z,0.97
2022-08-19T23:25:48.038Z,1.35
2022-08-19T23:28:34.751Z,0.40
2022-08-19T23:31:02.375Z,2.60
2022-08-19T23:33:46.614Z,0.57
2022-08-19T23:36:03.423Z,2.23
2022-08-19T23:38:30.975Z,1.00
2022-08-19T23:40:58.540Z,1.50
2022-08-19T23:43:26.125Z,0.40
2022-08-19T23:45:53.716Z,0.30
2022-08-19T23:48:21.246Z,0.73
2022-08-19T23:50:48.845Z,0.50
2022-08-19T23:53:16.410Z,1.80
2022-08-19T23:55:43.974Z,0.87
2022-08-19T23:58:11.589Z,1.63
